createdAt,value
2023-04-08T00:03:17.316Z,3.96
2023-04-08T00:08:18.015Z,3.95
2023-04-08T00:13:18.719Z,4.03
2023-04-08T00:18:20.623Z,3.99
2023-04-08T00:23:21.529Z,4.03
2023-04-08T00:28:22.124Z,3.97
2023-04-08T00:33:25.693Z,3.98
2023-04-08T00:38:26.571Z,4.01
2023-04-08T00:43:27.213Z,4.04
2023-04-08T00:48:31.297Z,4.02
2023-04-08T00:53:32.467Z,4.05
2023-04-08T00:58:33.107Z,4.05
2023-04-08T01:03:51.697Z,4.04
2023-04-08T01:08:53.321Z,4.07
2023-04-08T01:13:56.788Z,4.06
2023-04-08T01:18:59.174Z,4.03
2023-04-08T01:24:07.171Z,4.14
2023-04-08T01:29:11.695Z,4.16
2023-04-08T01:34:14.944Z,4.15
2023-04-08T01:39:17.608Z,4.25
2023-04-08T01:44:23.842Z,4.26
2023-04-08T01:49:26.911Z,4.30
2023-04-08T01:54:27.680Z,4.36
2023-04-08T01:59:35.784Z,4.37
2023-04-08T02:04:37.063Z,4.38
2023-04-08T02:09:37.794Z,4.42
2023-04-08T02:14:40.521Z,4.37
2023-04-08T02:19:47.628Z,4.42
2023-04-08T02:24:49.260Z,4.42
2023-04-08T02:29:54.078Z,4.37
2023-04-08T02:34:57.565Z,4.44
2023-04-08T02:39:58.759Z,4.39
2023-04-08T02:45:52.388Z,4.40
2023-04-08T02:50:54.341Z,4.46
2023-04-08T02:55:54.923Z,4.51
2023-04-08T03:00:55.745Z,4.52
2023-04-08T03:05:58.279Z,4.60
2023-04-08T03:10:58.846Z,4.58
2023-04-08T03:15:59.462Z,4.58
2023-04-08T03:21:03.243Z,4.59
2023-04-08T03:26:03.871Z,4.59
2023-04-08T03:31:04.817Z,4.59
2023-04-08T03:36:07.920Z,4.67
2023-04-08T03:41:08.476Z,4.66
2023-04-08T03:46:09.073Z,4.68
2023-04-08T03:51:11.001Z,4.67
2023-04-08T03:56:11.608Z,4.63
2023-04-08T04:01:12.213Z,4.65
2023-04-08T04:06:14.252Z,4.63
2023-04-08T04:11:14.810Z,4.70
2023-04-08T04:16:15.435Z,4.70
2023-04-08T04:21:17.350Z,4.68
2023-04-08T04:26:17.973Z,4.66
2023-04-08T04:31:22.754Z,4.61
2023-04-08T04:36:24.954Z,4.66
2023-04-08T04:41:25.515Z,4.70
2023-04-08T04:46:26.174Z,4.69
2023-04-08T04:51:28.174Z,4.70
2023-04-08T04:56:28.740Z,4.74
2023-04-08T05:01:30.548Z,4.77
2023-04-08T05:06:32.476Z,4.79
2023-04-08T05:11:33.113Z,4.77
2023-04-08T05:16:33.909Z,4.80
2023-04-08T05:21:35.919Z,4.86
2023-04-08T05:26:38.705Z,4.86
2023-04-08T05:31:39.365Z,4.97
2023-04-08T05:36:41.260Z,5.02
2023-04-08T05:41:41.916Z,5.04
2023-04-08T05:46:42.583Z,5.04
2023-04-08T05:51:46.763Z,5.12
2023-04-08T05:56:48.949Z,5.18
2023-04-08T06:01:52.687Z,5.29
2023-04-08T06:06:54.633Z,5.25
2023-04-08T06:11:56.797Z,5.44
2023-04-08T06:16:57.874Z,5.47
2023-04-08T06:21:59.973Z,5.51
2023-04-08T06:27:00.527Z,5.50
2023-04-08T06:32:01.348Z,5.53
2023-04-08T06:37:03.789Z,5.73
2023-04-08T06:42:04.476Z,5.85
2023-04-08T06:47:20.374Z,5.93
2023-04-08T06:52:22.523Z,6.10
2023-04-08T06:57:23.093Z,6.16
2023-04-08T07:02:24.411Z,6.22
2023-04-08T07:07:26.746Z,6.22
2023-04-08T07:12:27.390Z,6.32
2023-04-08T07:17:28.123Z,6.40
2023-04-08T07:22:30.044Z,6.47
2023-04-08T07:27:30.850Z,6.71
2023-04-08T07:32:32.034Z,6.73
2023-04-08T07:37:34.010Z,7.61
2023-04-08T07:42:34.641Z,7.43
2023-04-08T07:47:35.680Z,7.15
2023-04-08T07:52:37.650Z,7.15
2023-04-08T07:57:38.279Z,7.21
2023-04-08T08:02:39.048Z,7.28
2023-04-08T08:07:41.180Z,7.35
2023-04-08T08:12:41.867Z,7.61
2023-04-08T08:17:42.575Z,7.74
2023-04-08T08:22:54.583Z,7.84
2023-04-08T08:27:58.130Z,8.02
2023-04-08T08:32:59.182Z,8.16
2023-04-08T08:38:01.192Z,8.31
2023-04-08T08:43:02.198Z,8.19
2023-04-08T08:48:02.853Z,8.42
2023-04-08T08:53:04.799Z,8.68
2023-04-08T08:58:05.719Z,8.76
2023-04-08T09:03:18.029Z,9.12
2023-04-08T09:08:27.941Z,9.34
2023-04-08T09:13:37.017Z,9.35
2023-04-08T09:18:38.307Z,9.61
2023-04-08T09:23:42.523Z,9.48
2023-04-08T09:28:44.556Z,9.47
2023-04-08T09:33:45.372Z,10.02
2023-04-08T09:38:47.860Z,9.49
2023-04-08T09:43:50.580Z,9.37
2023-04-08T09:48:57.424Z,9.22
2023-04-08T09:54:03.028Z,8.90
2023-04-08T09:59:10.097Z,8.67
2023-04-08T10:04:15.895Z,8.73
2023-04-08T10:09:18.181Z,8.95
2023-04-08T10:14:18.864Z,8.75
2023-04-08T10:19:40.434Z,8.75
2023-04-08T10:25:02.960Z,8.81
2023-04-08T10:30:03.604Z,8.99
2023-04-08T10:35:04.332Z,9.11
2023-04-08T10:40:08.153Z,9.24
2023-04-08T10:45:10.343Z,9.40
2023-04-08T10:50:15.537Z,9.98
2023-04-08T10:55:23.559Z,10.16
2023-04-08T11:00:34.325Z,10.03
2023-04-08T11:05:36.793Z,9.46
2023-04-08T11:10:39.840Z,9.17
2023-04-08T11:15:40.669Z,9.07
2023-04-08T11:20:42.195Z,8.88
2023-04-08T11:25:45.734Z,8.84
2023-04-08T11:30:48.200Z,8.70
2023-04-08T11:35:52.167Z,8.49
2023-04-08T11:40:58.836Z,8.39
2023-04-08T11:45:59.908Z,8.86
2023-04-08T11:51:04.709Z,9.13
2023-04-08T11:56:19.936Z,8.69
2023-04-08T12:01:21.958Z,9.00
2023-04-08T12:06:23.334Z,9.37
2023-04-08T12:11:26.000Z,9.61
2023-04-08T12:16:27.259Z,9.48
2023-04-08T12:21:28.816Z,9.72
2023-04-08T12:26:30.785Z,10.40
2023-04-08T12:31:31.974Z,10.33
2023-04-08T12:36:33.201Z,10.26
2023-04-08T12:41:35.297Z,9.99
2023-04-08T12:46:35.887Z,9.75
2023-04-08T12:51:36.728Z,9.50
2023-04-08T12:56:39.360Z,9.19
2023-04-08T13:01:40.018Z,9.45
2023-04-08T13:06:40.723Z,9.48
2023-04-08T13:11:42.753Z,9.55
2023-04-08T13:16:43.390Z,9.54
2023-04-08T13:21:45.521Z,9.54
2023-04-08T13:26:48.084Z,9.57
2023-04-08T13:31:48.829Z,9.39
2023-04-08T13:36:49.480Z,9.23
2023-04-08T13:41:52.347Z,8.95
2023-04-08T13:46:53.137Z,9.29
2023-04-08T13:51:53.752Z,9.52
2023-04-08T13:56:55.833Z,9.06
2023-04-08T14:01:56.776Z,9.45
2023-04-08T14:06:58.202Z,9.47
2023-04-08T14:12:00.152Z,9.21
2023-04-08T14:17:00.894Z,9.16
2023-04-08T14:22:01.940Z,9.18
2023-04-08T14:27:03.993Z,9.29
2023-04-08T14:32:04.579Z,8.97
2023-04-08T14:37:05.308Z,8.57
2023-04-08T14:42:07.477Z,8.69
2023-04-08T14:47:08.112Z,8.25
2023-04-08T14:52:08.796Z,7.87
2023-04-08T14:57:10.726Z,7.99
2023-04-08T15:02:12.557Z,7.68
2023-04-08T15:07:13.288Z,7.72
2023-04-08T15:12:15.272Z,7.70
2023-04-08T15:17:16.798Z,8.14
2023-04-08T15:22:17.456Z,8.19
2023-04-08T15:27:19.718Z,8.29
2023-04-08T15:32:20.454Z,8.10
2023-04-08T15:37:22.560Z,8.21
2023-04-08T15:42:24.529Z,7.80
2023-04-08T15:47:25.186Z,7.75
2023-04-08T15:52:26.068Z,7.87
2023-04-08T15:57:27.964Z,7.91
2023-04-08T16:02:29.858Z,7.69
2023-04-08T16:07:30.589Z,7.69
2023-04-08T16:12:32.860Z,7.65
2023-04-08T16:17:33.608Z,7.55
2023-04-08T16:22:34.316Z,7.53
2023-04-08T16:27:37.003Z,7.56
2023-04-08T16:32:38.177Z,7.43
2023-04-08T16:37:38.873Z,7.39
2023-04-08T16:42:41.707Z,7.39
2023-04-08T16:47:42.553Z,7.43
2023-04-08T16:52:49.308Z,7.42
2023-04-08T16:57:51.346Z,7.36
2023-04-08T17:02:53.183Z,7.21
2023-04-08T17:07:54.134Z,7.21
2023-04-08T17:12:57.768Z,7.19
2023-04-08T17:17:58.385Z,7.08
2023-04-08T17:22:58.994Z,7.12
2023-04-08T17:28:00.985Z,7.09
2023-04-08T17:33:03.100Z,6.92
2023-04-08T17:38:04.022Z,6.82
2023-04-08T17:43:06.550Z,6.64
2023-04-08T17:48:09.346Z,6.56
2023-04-08T17:53:10.378Z,6.53
2023-04-08T17:58:12.399Z,6.59
2023-04-08T18:03:13.165Z,6.85
2023-04-08T18:08:13.996Z,6.75
2023-04-08T18:13:16.030Z,6.59
2023-04-08T18:18:20.153Z,6.59
2023-04-08T18:23:21.377Z,6.54
2023-04-08T18:28:23.362Z,6.45
2023-04-08T18:33:24.004Z,6.43
2023-04-08T18:38:24.587Z,6.38
2023-04-08T18:43:27.697Z,6.39
2023-04-08T18:48:28.466Z,6.25
2023-04-08T18:53:29.138Z,6.27
2023-04-08T18:58:32.007Z,6.23
2023-04-08T19:03:33.584Z,6.25
2023-04-08T19:08:34.605Z,6.26
2023-04-08T19:13:36.534Z,6.22
2023-04-08T19:18:37.297Z,6.14
2023-04-08T19:23:37.889Z,5.90
2023-04-08T19:28:39.994Z,5.81
2023-04-08T19:33:40.584Z,5.59
2023-04-08T19:38:41.237Z,5.53
2023-04-08T19:43:43.192Z,5.31
2023-04-08T19:48:44.388Z,5.18
2023-04-08T19:53:45.411Z,5.13
2023-04-08T19:58:48.281Z,5.07
2023-04-08T20:03:50.403Z,4.91
2023-04-08T20:08:53.673Z,4.75
2023-04-08T20:13:55.901Z,4.69
2023-04-08T20:18:56.990Z,4.66
2023-04-08T20:23:57.705Z,4.63
2023-04-08T20:28:59.737Z,4.62
2023-04-08T20:34:00.615Z,4.60
2023-04-08T20:39:01.258Z,4.50
2023-04-08T20:44:03.270Z,4.38
2023-04-08T20:49:04.224Z,4.30
2023-04-08T20:54:04.937Z,4.29
2023-04-08T20:59:07.080Z,4.21
2023-04-08T21:04:07.677Z,4.08
2023-04-08T21:09:08.286Z,4.12
2023-04-08T21:14:10.232Z,4.02
2023-04-08T21:19:10.841Z,3.89
2023-04-08T21:24:11.455Z,3.77
2023-04-08T21:29:13.543Z,3.72
2023-04-08T21:34:14.423Z,3.66
2023-04-08T21:39:15.026Z,3.62
2023-04-08T21:44:17.044Z,3.53
2023-04-08T21:49:17.662Z,3.33
2023-04-08T21:54:18.319Z,3.37
2023-04-08T21:59:20.506Z,3.33
2023-04-08T22:04:21.761Z,3.29
2023-04-08T22:09:22.440Z,3.24
2023-04-08T22:14:24.355Z,3.18
2023-04-08T22:19:25.038Z,3.06
2023-04-08T22:24:27.635Z,3.00
2023-04-08T22:29:29.706Z,2.91
2023-04-08T22:34:30.351Z,2.84
2023-04-08T22:39:31.316Z,2.75
2023-04-08T22:44:33.263Z,2.65
2023-04-08T22:49:33.857Z,2.57
2023-04-08T22:54:34.468Z,2.55
2023-04-08T22:59:36.452Z,2.58
2023-04-08T23:04:37.041Z,2.55
2023-04-08T23:09:37.584Z,2.46
2023-04-08T23:14:39.490Z,2.38
2023-04-08T23:19:40.901Z,2.30
2023-04-08T23:24:41.475Z,2.25
2023-04-08T23:29:43.391Z,2.19
2023-04-08T23:34:44.010Z,2.17
2023-04-08T23:39:44.585Z,2.09
2023-04-08T23:44:48.226Z,2.04
2023-04-08T23:49:48.814Z,2.05
2023-04-08T23:54:50.827Z,2.02
2023-04-08T23:59:52.711Z,1.98
